sensor_id;sensor_type;location;lat;lon;timestamp;P1;durP1;ratioP1;P2;durP2;ratioP2
4957;SDS011;2494;51.872;9.688;2022-10-16T00:00:32;3.50;;;3.10;;
4957;SDS011;2494;51.872;9.688;2022-10-16T00:02:58;8.23;;;4.10;;
4957;SDS011;2494;51.872;9.688;2022-10-16T00:05:26;4.20;;;3.90;;
4957;SDS011;2494;51.872;9.688;2022-10-16T00:07:53;5.23;;;3.20;;
4957;SDS011;2494;51.872;9.688;2022-10-16T00:10:20;4.83;;;4.43;;
4957;SDS011;2494;51.872;9.688;2022-10-16T00:12:47;4.43;;;4.00;;
4957;SDS011;2494;51.872;9.688;2022-10-16T00:15:13;5.57;;;4.07;;
4957;SDS011;2494;51.872;9.688;2022-10-16T00:17:40;4.53;;;4.13;;
4957;SDS011;2494;51.872;9.688;2022-10-16T00:20:07;4.00;;;3.80;;
4957;SDS011;2494;51.872;9.688;2022-10-16T00:22:35;3.90;;;3.60;;
4957;SDS011;2494;51.872;9.688;2022-10-16T00:25:01;3.17;;;2.87;;
4957;SDS011;2494;51.872;9.688;2022-10-16T00:27:28;4.27;;;3.93;;
4957;SDS011;2494;51.872;9.688;2022-10-16T00:29:55;3.97;;;3.67;;
4957;SDS011;2494;51.872;9.688;2022-10-16T00:32:21;4.50;;;3.63;;
4957;SDS011;2494;51.872;9.688;2022-10-16T00:34:48;4.27;;;3.60;;
4957;SDS011;2494;51.872;9.688;2022-10-16T00:37:14;4.07;;;3.50;;
4957;SDS011;2494;51.872;9.688;2022-10-16T00:39:43;3.67;;;3.27;;
4957;SDS011;2494;51.872;9.688;2022-10-16T00:42:09;3.80;;;3.40;;
4957;SDS011;2494;51.872;9.688;2022-10-16T00:44:41;3.73;;;2.80;;
4957;SDS011;2494;51.872;9.688;2022-10-16T00:47:08;2.90;;;2.70;;
4957;SDS011;2494;51.872;9.688;2022-10-16T00:49:35;3.50;;;3.10;;
4957;SDS011;2494;51.872;9.688;2022-10-16T00:52:02;2.80;;;2.60;;
4957;SDS011;2494;51.872;9.688;2022-10-16T00:54:29;3.97;;;3.23;;
4957;SDS011;2494;51.872;9.688;2022-10-16T00:57:00;2.97;;;2.77;;
4957;SDS011;2494;51.872;9.688;2022-10-16T00:59:28;3.30;;;2.53;;
4957;SDS011;2494;51.872;9.688;2022-10-16T01:01:55;3.03;;;2.17;;
4957;SDS011;2494;51.872;9.688;2022-10-16T01:04:22;3.50;;;2.63;;
4957;SDS011;2494;51.872;9.688;2022-10-16T01:06:51;7.47;;;3.03;;
4957;SDS011;2494;51.872;9.688;2022-10-16T01:09:23;2.83;;;2.30;;
4957;SDS011;2494;51.872;9.688;2022-10-16T01:11:55;2.67;;;2.47;;
4957;SDS011;2494;51.872;9.688;2022-10-16T01:14:26;4.77;;;2.07;;
4957;SDS011;2494;51.872;9.688;2022-10-16T01:16:55;1.90;;;1.80;;
4957;SDS011;2494;51.872;9.688;2022-10-16T01:19:26;2.43;;;2.00;;
4957;SDS011;2494;51.872;9.688;2022-10-16T01:21:52;4.23;;;2.60;;
4957;SDS011;2494;51.872;9.688;2022-10-16T01:24:22;4.13;;;2.80;;
4957;SDS011;2494;51.872;9.688;2022-10-16T01:27:05;3.63;;;2.67;;
4957;SDS011;2494;51.872;9.688;2022-10-16T01:29:33;3.83;;;2.73;;
4957;SDS011;2494;51.872;9.688;2022-10-16T01:32:02;4.57;;;2.97;;
4957;SDS011;2494;51.872;9.688;2022-10-16T01:34:32;3.60;;;3.10;;
4957;SDS011;2494;51.872;9.688;2022-10-16T01:37:02;4.27;;;3.40;;
4957;SDS011;2494;51.872;9.688;2022-10-16T01:39:31;5.53;;;2.90;;
4957;SDS011;2494;51.872;9.688;2022-10-16T01:42:00;3.27;;;2.97;;
4957;SDS011;2494;51.872;9.688;2022-10-16T01:44:31;3.03;;;2.83;;
4957;SDS011;2494;51.872;9.688;2022-10-16T01:46:58;4.20;;;3.77;;
4957;SDS011;2494;51.872;9.688;2022-10-16T01:49:27;3.17;;;2.90;;
4957;SDS011;2494;51.872;9.688;2022-10-16T01:51:56;3.77;;;3.20;;
4957;SDS011;2494;51.872;9.688;2022-10-16T01:54:25;3.57;;;3.27;;
4957;SDS011;2494;51.872;9.688;2022-10-16T01:56:54;4.83;;;3.43;;
4957;SDS011;2494;51.872;9.688;2022-10-16T01:59:21;3.87;;;3.57;;
4957;SDS011;2494;51.872;9.688;2022-10-16T02:01:50;3.63;;;3.33;;
4957;SDS011;2494;51.872;9.688;2022-10-16T02:04:18;3.60;;;3.30;;
4957;SDS011;2494;51.872;9.688;2022-10-16T02:06:47;4.00;;;3.70;;
4957;SDS011;2494;51.872;9.688;2022-10-16T02:09:14;3.63;;;3.23;;
4957;SDS011;2494;51.872;9.688;2022-10-16T02:11:42;7.53;;;3.70;;
4957;SDS011;2494;51.872;9.688;2022-10-16T02:14:08;4.70;;;4.13;;
4957;SDS011;2494;51.872;9.688;2022-10-16T02:16:35;5.90;;;3.90;;
4957;SDS011;2494;51.872;9.688;2022-10-16T02:19:04;4.77;;;4.40;;
4957;SDS011;2494;51.872;9.688;2022-10-16T02:21:33;3.20;;;2.90;;
4957;SDS011;2494;51.872;9.688;2022-10-16T02:24:04;3.60;;;3.40;;
4957;SDS011;2494;51.872;9.688;2022-10-16T02:26:34;4.23;;;3.27;;
4957;SDS011;2494;51.872;9.688;2022-10-16T02:29:09;4.77;;;3.20;;
4957;SDS011;2494;51.872;9.688;2022-10-16T02:31:38;4.30;;;3.23;;
4957;SDS011;2494;51.872;9.688;2022-10-16T02:34:07;3.70;;;3.50;;
4957;SDS011;2494;51.872;9.688;2022-10-16T02:36:36;3.47;;;3.17;;
4957;SDS011;2494;51.872;9.688;2022-10-16T02:39:04;4.03;;;3.73;;
4957;SDS011;2494;51.872;9.688;2022-10-16T02:41:30;3.93;;;3.60;;
4957;SDS011;2494;51.872;9.688;2022-10-16T02:43:57;3.93;;;3.63;;
4957;SDS011;2494;51.872;9.688;2022-10-16T02:46:23;4.10;;;3.70;;
4957;SDS011;2494;51.872;9.688;2022-10-16T02:48:50;5.10;;;4.10;;
4957;SDS011;2494;51.872;9.688;2022-10-16T02:51:18;3.93;;;3.63;;
4957;SDS011;2494;51.872;9.688;2022-10-16T02:53:44;3.37;;;3.10;;
4957;SDS011;2494;51.872;9.688;2022-10-16T02:56:11;6.07;;;3.87;;
4957;SDS011;2494;51.872;9.688;2022-10-16T02:58:38;5.80;;;3.57;;
4957;SDS011;2494;51.872;9.688;2022-10-16T03:01:04;4.20;;;3.90;;
4957;SDS011;2494;51.872;9.688;2022-10-16T03:03:31;4.50;;;4.20;;
4957;SDS011;2494;51.872;9.688;2022-10-16T03:05:57;4.37;;;4.07;;
4957;SDS011;2494;51.872;9.688;2022-10-16T03:08:25;3.40;;;3.20;;
4957;SDS011;2494;51.872;9.688;2022-10-16T03:10:52;4.73;;;4.20;;
4957;SDS011;2494;51.872;9.688;2022-10-16T03:13:18;3.20;;;3.00;;
4957;SDS011;2494;51.872;9.688;2022-10-16T03:15:46;3.90;;;3.00;;
4957;SDS011;2494;51.872;9.688;2022-10-16T03:18:13;2.80;;;2.60;;
4957;SDS011;2494;51.872;9.688;2022-10-16T03:20:39;3.00;;;2.80;;
4957;SDS011;2494;51.872;9.688;2022-10-16T03:23:06;3.00;;;2.67;;
4957;SDS011;2494;51.872;9.688;2022-10-16T03:25:34;2.30;;;2.03;;
4957;SDS011;2494;51.872;9.688;2022-10-16T03:28:01;2.23;;;2.03;;
4957;SDS011;2494;51.872;9.688;2022-10-16T03:30:28;3.13;;;2.47;;
4957;SDS011;2494;51.872;9.688;2022-10-16T03:32:54;2.27;;;2.07;;
4957;SDS011;2494;51.872;9.688;2022-10-16T03:35:21;2.00;;;1.70;;
4957;SDS011;2494;51.872;9.688;2022-10-16T03:37:47;2.90;;;2.17;;
4957;SDS011;2494;51.872;9.688;2022-10-16T03:40:14;3.10;;;1.67;;
4957;SDS011;2494;51.872;9.688;2022-10-16T03:42:43;2.43;;;1.90;;
4957;SDS011;2494;51.872;9.688;2022-10-16T03:45:09;2.43;;;1.77;;
4957;SDS011;2494;51.872;9.688;2022-10-16T03:47:36;4.73;;;2.17;;
4957;SDS011;2494;51.872;9.688;2022-10-16T03:50:03;2.23;;;2.13;;
4957;SDS011;2494;51.872;9.688;2022-10-16T03:52:30;4.57;;;1.90;;
4957;SDS011;2494;51.872;9.688;2022-10-16T03:54:59;2.40;;;2.20;;
4957;SDS011;2494;51.872;9.688;2022-10-16T03:57:25;3.90;;;2.47;;
4957;SDS011;2494;51.872;9.688;2022-10-16T03:59:53;4.13;;;2.20;;
4957;SDS011;2494;51.872;9.688;2022-10-16T04:02:20;4.30;;;2.03;;
4957;SDS011;2494;51.872;9.688;2022-10-16T04:04:47;2.33;;;2.13;;
4957;SDS011;2494;51.872;9.688;2022-10-16T04:07:13;3.60;;;2.20;;
4957;SDS011;2494;51.872;9.688;2022-10-16T04:09:41;2.23;;;2.13;;
4957;SDS011;2494;51.872;9.688;2022-10-16T04:12:08;1.83;;;1.73;;
4957;SDS011;2494;51.872;9.688;2022-10-16T04:14:34;2.30;;;2.20;;
4957;SDS011;2494;51.872;9.688;2022-10-16T04:17:02;2.50;;;2.30;;
4957;SDS011;2494;51.872;9.688;2022-10-16T04:19:28;2.33;;;2.13;;
4957;SDS011;2494;51.872;9.688;2022-10-16T04:21:55;3.73;;;2.30;;
4957;SDS011;2494;51.872;9.688;2022-10-16T04:24:22;3.00;;;2.70;;
4957;SDS011;2494;51.872;9.688;2022-10-16T04:26:48;3.83;;;2.20;;
4957;SDS011;2494;51.872;9.688;2022-10-16T04:29:15;3.20;;;2.40;;
4957;SDS011;2494;51.872;9.688;2022-10-16T04:31:41;2.43;;;2.33;;
4957;SDS011;2494;51.872;9.688;2022-10-16T04:34:09;2.63;;;2.43;;
4957;SDS011;2494;51.872;9.688;2022-10-16T04:36:36;2.87;;;2.40;;
4957;SDS011;2494;51.872;9.688;2022-10-16T04:39:02;3.33;;;3.07;;
4957;SDS011;2494;51.872;9.688;2022-10-16T04:41:29;2.73;;;2.30;;
4957;SDS011;2494;51.872;9.688;2022-10-16T04:43:56;2.57;;;2.40;;
4957;SDS011;2494;51.872;9.688;2022-10-16T04:46:22;2.50;;;2.30;;
4957;SDS011;2494;51.872;9.688;2022-10-16T04:48:49;5.90;;;2.23;;
4957;SDS011;2494;51.872;9.688;2022-10-16T04:51:17;2.83;;;2.63;;
4957;SDS011;2494;51.872;9.688;2022-10-16T04:53:43;2.40;;;2.30;;
4957;SDS011;2494;51.872;9.688;2022-10-16T04:56:10;4.83;;;2.43;;
4957;SDS011;2494;51.872;9.688;2022-10-16T04:58:37;3.10;;;2.70;;
4957;SDS011;2494;51.872;9.688;2022-10-16T05:01:03;5.40;;;3.50;;
4957;SDS011;2494;51.872;9.688;2022-10-16T05:03:30;2.73;;;2.63;;
4957;SDS011;2494;51.872;9.688;2022-10-16T05:05:56;2.37;;;2.10;;
4957;SDS011;2494;51.872;9.688;2022-10-16T05:08:24;3.17;;;3.00;;
4957;SDS011;2494;51.872;9.688;2022-10-16T05:10:51;2.37;;;2.23;;
4957;SDS011;2494;51.872;9.688;2022-10-16T05:13:17;2.53;;;2.33;;
4957;SDS011;2494;51.872;9.688;2022-10-16T05:15:46;5.10;;;2.90;;
4957;SDS011;2494;51.872;9.688;2022-10-16T05:18:12;2.40;;;2.20;;
4957;SDS011;2494;51.872;9.688;2022-10-16T05:20:39;3.10;;;2.90;;
4957;SDS011;2494;51.872;9.688;2022-10-16T05:23:05;2.80;;;2.60;;
4957;SDS011;2494;51.872;9.688;2022-10-16T05:25:34;3.03;;;2.73;;
4957;SDS011;2494;51.872;9.688;2022-10-16T05:28:00;3.90;;;3.60;;
4957;SDS011;2494;51.872;9.688;2022-10-16T05:30:26;3.83;;;2.73;;
4957;SDS011;2494;51.872;9.688;2022-10-16T05:32:53;3.10;;;2.40;;
4957;SDS011;2494;51.872;9.688;2022-10-16T05:35:20;3.10;;;2.80;;
4957;SDS011;2494;51.872;9.688;2022-10-16T05:37:46;3.83;;;3.40;;
4957;SDS011;2494;51.872;9.688;2022-10-16T05:40:13;2.97;;;2.70;;
4957;SDS011;2494;51.872;9.688;2022-10-16T05:42:41;3.10;;;2.90;;
4957;SDS011;2494;51.872;9.688;2022-10-16T05:45:09;2.70;;;2.50;;
4957;SDS011;2494;51.872;9.688;2022-10-16T05:47:36;6.13;;;2.60;;
4957;SDS011;2494;51.872;9.688;2022-10-16T05:50:03;3.63;;;2.60;;
4957;SDS011;2494;51.872;9.688;2022-10-16T05:52:30;2.47;;;2.27;;
4957;SDS011;2494;51.872;9.688;2022-10-16T05:54:57;2.20;;;2.00;;
4957;SDS011;2494;51.872;9.688;2022-10-16T05:57:23;2.67;;;2.57;;
4957;SDS011;2494;51.872;9.688;2022-10-16T05:59:51;8.50;;;2.40;;
4957;SDS011;2494;51.872;9.688;2022-10-16T06:02:18;2.37;;;2.27;;
4957;SDS011;2494;51.872;9.688;2022-10-16T06:04:44;4.73;;;2.40;;
4957;SDS011;2494;51.872;9.688;2022-10-16T06:07:11;3.37;;;2.10;;
4957;SDS011;2494;51.872;9.688;2022-10-16T06:09:37;2.53;;;2.03;;
4957;SDS011;2494;51.872;9.688;2022-10-16T06:12:04;1.90;;;1.80;;
4957;SDS011;2494;51.872;9.688;2022-10-16T06:14:30;5.53;;;1.80;;
4957;SDS011;2494;51.872;9.688;2022-10-16T06:16:58;1.80;;;1.60;;
4957;SDS011;2494;51.872;9.688;2022-10-16T06:19:25;1.73;;;1.60;;
4957;SDS011;2494;51.872;9.688;2022-10-16T06:21:51;1.80;;;1.70;;
4957;SDS011;2494;51.872;9.688;2022-10-16T06:24:17;6.40;;;1.97;;
4957;SDS011;2494;51.872;9.688;2022-10-16T06:26:44;1.90;;;1.80;;
4957;SDS011;2494;51.872;9.688;2022-10-16T06:29:11;2.10;;;1.90;;
4957;SDS011;2494;51.872;9.688;2022-10-16T06:31:37;2.20;;;1.90;;
4957;SDS011;2494;51.872;9.688;2022-10-16T06:34:05;3.30;;;1.80;;
4957;SDS011;2494;51.872;9.688;2022-10-16T06:36:34;4.50;;;1.67;;
4957;SDS011;2494;51.872;9.688;2022-10-16T06:39:01;4.90;;;1.60;;
4957;SDS011;2494;51.872;9.688;2022-10-16T06:41:27;1.93;;;1.50;;
4957;SDS011;2494;51.872;9.688;2022-10-16T06:43:54;1.70;;;1.60;;
4957;SDS011;2494;51.872;9.688;2022-10-16T06:46:21;2.67;;;1.77;;
4957;SDS011;2494;51.872;9.688;2022-10-16T06:48:48;1.60;;;1.50;;
4957;SDS011;2494;51.872;9.688;2022-10-16T06:51:16;1.97;;;1.87;;
4957;SDS011;2494;51.872;9.688;2022-10-16T06:53:43;1.70;;;1.60;;
4957;SDS011;2494;51.872;9.688;2022-10-16T06:56:12;2.80;;;1.50;;
4957;SDS011;2494;51.872;9.688;2022-10-16T06:58:38;1.43;;;1.33;;
4957;SDS011;2494;51.872;9.688;2022-10-16T07:01:05;2.47;;;1.40;;
4957;SDS011;2494;51.872;9.688;2022-10-16T07:03:32;1.60;;;1.50;;
4957;SDS011;2494;51.872;9.688;2022-10-16T07:06:02;2.93;;;1.80;;
4957;SDS011;2494;51.872;9.688;2022-10-16T07:08:31;2.03;;;1.63;;
4957;SDS011;2494;51.872;9.688;2022-10-16T07:10:59;1.80;;;1.70;;
4957;SDS011;2494;51.872;9.688;2022-10-16T07:13:26;3.20;;;2.40;;
4957;SDS011;2494;51.872;9.688;2022-10-16T07:15:52;1.60;;;1.50;;
4957;SDS011;2494;51.872;9.688;2022-10-16T07:18:19;2.87;;;1.57;;
4957;SDS011;2494;51.872;9.688;2022-10-16T07:20:45;1.70;;;1.30;;
4957;SDS011;2494;51.872;9.688;2022-10-16T07:23:12;3.20;;;1.60;;
4957;SDS011;2494;51.872;9.688;2022-10-16T07:25:40;1.90;;;1.23;;
4957;SDS011;2494;51.872;9.688;2022-10-16T07:28:06;1.53;;;1.10;;
4957;SDS011;2494;51.872;9.688;2022-10-16T07:30:34;2.57;;;1.00;;
4957;SDS011;2494;51.872;9.688;2022-10-16T07:33:00;1.60;;;1.00;;
4957;SDS011;2494;51.872;9.688;2022-10-16T07:35:27;1.20;;;1.10;;
4957;SDS011;2494;51.872;9.688;2022-10-16T07:37:54;1.73;;;1.20;;
4957;SDS011;2494;51.872;9.688;2022-10-16T07:40:20;4.10;;;0.90;;
4957;SDS011;2494;51.872;9.688;2022-10-16T07:42:48;1.07;;;0.90;;
4957;SDS011;2494;51.872;9.688;2022-10-16T07:45:14;1.00;;;0.97;;
4957;SDS011;2494;51.872;9.688;2022-10-16T07:47:41;0.80;;;0.80;;
4957;SDS011;2494;51.872;9.688;2022-10-16T07:50:08;2.83;;;0.90;;
4957;SDS011;2494;51.872;9.688;2022-10-16T07:52:34;0.80;;;0.80;;
4957;SDS011;2494;51.872;9.688;2022-10-16T07:55:00;1.43;;;0.80;;
4957;SDS011;2494;51.872;9.688;2022-10-16T07:57:28;2.80;;;1.00;;
4957;SDS011;2494;51.872;9.688;2022-10-16T07:59:56;1.17;;;1.07;;
4957;SDS011;2494;51.872;9.688;2022-10-16T08:02:22;0.80;;;0.80;;
4957;SDS011;2494;51.872;9.688;2022-10-16T08:04:49;1.13;;;0.80;;
4957;SDS011;2494;51.872;9.688;2022-10-16T08:07:16;1.77;;;0.90;;
4957;SDS011;2494;51.872;9.688;2022-10-16T08:09:43;4.30;;;0.80;;
4957;SDS011;2494;51.872;9.688;2022-10-16T08:12:09;5.70;;;1.07;;
4957;SDS011;2494;51.872;9.688;2022-10-16T08:14:36;0.90;;;0.80;;
4957;SDS011;2494;51.872;9.688;2022-10-16T08:17:04;1.30;;;0.70;;
4957;SDS011;2494;51.872;9.688;2022-10-16T08:19:30;2.40;;;0.70;;
4957;SDS011;2494;51.872;9.688;2022-10-16T08:21:59;2.10;;;0.70;;
4957;SDS011;2494;51.872;9.688;2022-10-16T08:24:26;0.60;;;0.60;;
4957;SDS011;2494;51.872;9.688;2022-10-16T08:26:55;1.20;;;0.83;;
4957;SDS011;2494;51.872;9.688;2022-10-16T08:29:22;1.67;;;0.80;;
4957;SDS011;2494;51.872;9.688;2022-10-16T08:31:49;3.73;;;0.70;;
4957;SDS011;2494;51.872;9.688;2022-10-16T08:34:16;1.10;;;0.60;;
4957;SDS011;2494;51.872;9.688;2022-10-16T08:36:43;0.70;;;0.60;;
4957;SDS011;2494;51.872;9.688;2022-10-16T08:39:09;1.03;;;0.80;;
4957;SDS011;2494;51.872;9.688;2022-10-16T08:44:30;1.03;;;0.80;;
4957;SDS011;2494;51.872;9.688;2022-10-16T08:47:00;0.70;;;0.60;;
4957;SDS011;2494;51.872;9.688;2022-10-16T08:49:30;2.73;;;1.00;;
4957;SDS011;2494;51.872;9.688;2022-10-16T08:51:57;3.20;;;0.70;;
4957;SDS011;2494;51.872;9.688;2022-10-16T08:54:27;0.70;;;0.70;;
4957;SDS011;2494;51.872;9.688;2022-10-16T08:56:54;1.53;;;0.73;;
4957;SDS011;2494;51.872;9.688;2022-10-16T08:59:21;1.90;;;0.80;;
4957;SDS011;2494;51.872;9.688;2022-10-16T09:01:49;0.80;;;0.80;;
4957;SDS011;2494;51.872;9.688;2022-10-16T09:04:28;3.33;;;0.80;;
4957;SDS011;2494;51.872;9.688;2022-10-16T09:06:59;1.07;;;0.77;;
4957;SDS011;2494;51.872;9.688;2022-10-16T09:09:32;1.10;;;1.00;;
4957;SDS011;2494;51.872;9.688;2022-10-16T09:12:04;2.93;;;1.07;;
4957;SDS011;2494;51.872;9.688;2022-10-16T09:14:35;3.43;;;0.80;;
4957;SDS011;2494;51.872;9.688;2022-10-16T09:17:06;2.57;;;0.80;;
4957;SDS011;2494;51.872;9.688;2022-10-16T09:19:41;0.90;;;0.80;;
4957;SDS011;2494;51.872;9.688;2022-10-16T09:22:14;5.90;;;0.80;;
4957;SDS011;2494;51.872;9.688;2022-10-16T09:24:41;0.70;;;0.70;;
4957;SDS011;2494;51.872;9.688;2022-10-16T09:27:08;1.10;;;0.97;;
4957;SDS011;2494;51.872;9.688;2022-10-16T09:29:36;2.07;;;0.80;;
4957;SDS011;2494;51.872;9.688;2022-10-16T09:32:07;2.00;;;0.80;;
4957;SDS011;2494;51.872;9.688;2022-10-16T09:34:36;1.10;;;0.70;;
4957;SDS011;2494;51.872;9.688;2022-10-16T09:37:08;0.70;;;0.70;;
4957;SDS011;2494;51.872;9.688;2022-10-16T09:39:45;2.10;;;0.80;;
4957;SDS011;2494;51.872;9.688;2022-10-16T09:42:13;1.80;;;0.70;;
4957;SDS011;2494;51.872;9.688;2022-10-16T09:44:40;0.80;;;0.80;;
4957;SDS011;2494;51.872;9.688;2022-10-16T09:47:12;0.80;;;0.80;;
4957;SDS011;2494;51.872;9.688;2022-10-16T09:49:39;1.13;;;0.70;;
4957;SDS011;2494;51.872;9.688;2022-10-16T09:52:09;3.00;;;1.00;;
4957;SDS011;2494;51.872;9.688;2022-10-16T09:54:37;0.80;;;0.80;;
4957;SDS011;2494;51.872;9.688;2022-10-16T09:57:05;2.23;;;0.90;;
4957;SDS011;2494;51.872;9.688;2022-10-16T09:59:32;1.30;;;0.60;;
4957;SDS011;2494;51.872;9.688;2022-10-16T10:02:01;1.10;;;0.80;;
4957;SDS011;2494;51.872;9.688;2022-10-16T10:04:37;1.33;;;0.73;;
4957;SDS011;2494;51.872;9.688;2022-10-16T10:07:04;3.30;;;0.80;;
4957;SDS011;2494;51.872;9.688;2022-10-16T10:09:31;2.90;;;0.80;;
4957;SDS011;2494;51.872;9.688;2022-10-16T10:11:59;1.60;;;1.07;;
4957;SDS011;2494;51.872;9.688;2022-10-16T10:14:40;1.17;;;0.80;;
4957;SDS011;2494;51.872;9.688;2022-10-16T10:17:11;1.00;;;0.90;;
4957;SDS011;2494;51.872;9.688;2022-10-16T10:19:38;1.67;;;0.80;;
4957;SDS011;2494;51.872;9.688;2022-10-16T10:22:13;3.37;;;0.80;;
4957;SDS011;2494;51.872;9.688;2022-10-16T10:24:39;1.57;;;0.70;;
4957;SDS011;2494;51.872;9.688;2022-10-16T10:27:07;1.13;;;1.00;;
4957;SDS011;2494;51.872;9.688;2022-10-16T10:29:40;1.70;;;0.80;;
4957;SDS011;2494;51.872;9.688;2022-10-16T10:32:12;0.80;;;0.80;;
4957;SDS011;2494;51.872;9.688;2022-10-16T10:34:48;0.73;;;0.63;;
4957;SDS011;2494;51.872;9.688;2022-10-16T10:37:23;2.73;;;1.00;;
4957;SDS011;2494;51.872;9.688;2022-10-16T10:39:56;1.00;;;0.90;;
4957;SDS011;2494;51.872;9.688;2022-10-16T10:42:25;0.70;;;0.70;;
4957;SDS011;2494;51.872;9.688;2022-10-16T10:47:40;1.73;;;0.80;;
4957;SDS011;2494;51.872;9.688;2022-10-16T10:50:13;1.10;;;0.80;;
4957;SDS011;2494;51.872;9.688;2022-10-16T10:52:48;1.30;;;0.93;;
4957;SDS011;2494;51.872;9.688;2022-10-16T10:55:20;1.30;;;0.90;;
4957;SDS011;2494;51.872;9.688;2022-10-16T10:57:57;1.20;;;0.80;;
4957;SDS011;2494;51.872;9.688;2022-10-16T11:00:27;5.00;;;0.90;;
4957;SDS011;2494;51.872;9.688;2022-10-16T11:02:57;2.27;;;1.07;;
4957;SDS011;2494;51.872;9.688;2022-10-16T11:05:27;0.90;;;0.80;;
4957;SDS011;2494;51.872;9.688;2022-10-16T11:07:57;2.87;;;0.80;;
4957;SDS011;2494;51.872;9.688;2022-10-16T11:10:25;1.83;;;1.07;;
4957;SDS011;2494;51.872;9.688;2022-10-16T11:12:54;1.00;;;0.90;;
4957;SDS011;2494;51.872;9.688;2022-10-16T11:15:23;1.20;;;0.80;;
4957;SDS011;2494;51.872;9.688;2022-10-16T11:17:52;1.20;;;1.00;;
4957;SDS011;2494;51.872;9.688;2022-10-16T11:20:21;2.33;;;0.80;;
4957;SDS011;2494;51.872;9.688;2022-10-16T11:22:50;1.40;;;0.93;;
4957;SDS011;2494;51.872;9.688;2022-10-16T11:25:18;1.60;;;0.77;;
4957;SDS011;2494;51.872;9.688;2022-10-16T11:27:47;1.10;;;0.80;;
4957;SDS011;2494;51.872;9.688;2022-10-16T11:30:16;4.20;;;0.93;;
4957;SDS011;2494;51.872;9.688;2022-10-16T11:32:49;1.73;;;0.93;;
4957;SDS011;2494;51.872;9.688;2022-10-16T11:35:17;1.17;;;1.07;;
4957;SDS011;2494;51.872;9.688;2022-10-16T11:37:47;0.97;;;0.97;;
4957;SDS011;2494;51.872;9.688;2022-10-16T11:40:19;1.20;;;1.10;;
4957;SDS011;2494;51.872;9.688;2022-10-16T11:42:48;2.20;;;0.90;;
4957;SDS011;2494;51.872;9.688;2022-10-16T11:45:17;1.20;;;1.10;;
4957;SDS011;2494;51.872;9.688;2022-10-16T11:47:51;2.20;;;1.30;;
4957;SDS011;2494;51.872;9.688;2022-10-16T11:50:21;1.00;;;0.90;;
4957;SDS011;2494;51.872;9.688;2022-10-16T11:52:51;2.87;;;1.13;;
4957;SDS011;2494;51.872;9.688;2022-10-16T11:55:20;2.90;;;0.90;;
4957;SDS011;2494;51.872;9.688;2022-10-16T11:57:49;1.30;;;1.00;;
4957;SDS011;2494;51.872;9.688;2022-10-16T12:00:19;1.80;;;0.77;;
4957;SDS011;2494;51.872;9.688;2022-10-16T12:02:49;0.77;;;0.70;;
4957;SDS011;2494;51.872;9.688;2022-10-16T12:05:22;1.20;;;0.87;;
4957;SDS011;2494;51.872;9.688;2022-10-16T12:07:54;1.10;;;1.00;;
4957;SDS011;2494;51.872;9.688;2022-10-16T12:10:22;1.10;;;0.73;;
4957;SDS011;2494;51.872;9.688;2022-10-16T12:12:49;1.30;;;0.93;;
4957;SDS011;2494;51.872;9.688;2022-10-16T12:15:20;0.90;;;0.90;;
4957;SDS011;2494;51.872;9.688;2022-10-16T12:17:47;1.77;;;1.43;;
4957;SDS011;2494;51.872;9.688;2022-10-16T12:20:24;0.90;;;0.90;;
4957;SDS011;2494;51.872;9.688;2022-10-16T12:22:54;1.00;;;0.90;;
4957;SDS011;2494;51.872;9.688;2022-10-16T12:25:21;1.40;;;0.80;;
4957;SDS011;2494;51.872;9.688;2022-10-16T12:27:53;1.20;;;0.90;;
4957;SDS011;2494;51.872;9.688;2022-10-16T12:30:20;2.43;;;1.60;;
4957;SDS011;2494;51.872;9.688;2022-10-16T12:32:53;1.17;;;0.87;;
4957;SDS011;2494;51.872;9.688;2022-10-16T12:35:20;1.67;;;0.80;;
4957;SDS011;2494;51.872;9.688;2022-10-16T12:37:47;0.83;;;0.83;;
4957;SDS011;2494;51.872;9.688;2022-10-16T12:40:22;1.00;;;0.90;;
4957;SDS011;2494;51.872;9.688;2022-10-16T12:42:49;0.90;;;0.90;;
4957;SDS011;2494;51.872;9.688;2022-10-16T12:45:26;1.67;;;1.20;;
4957;SDS011;2494;51.872;9.688;2022-10-16T12:47:53;1.90;;;0.90;;
4957;SDS011;2494;51.872;9.688;2022-10-16T12:50:28;1.20;;;0.93;;
4957;SDS011;2494;51.872;9.688;2022-10-16T12:52:55;1.30;;;1.20;;
4957;SDS011;2494;51.872;9.688;2022-10-16T12:55:23;1.73;;;1.07;;
4957;SDS011;2494;51.872;9.688;2022-10-16T12:57:57;0.80;;;0.80;;
4957;SDS011;2494;51.872;9.688;2022-10-16T13:00:28;1.10;;;0.90;;
4957;SDS011;2494;51.872;9.688;2022-10-16T13:03:02;1.00;;;0.90;;
4957;SDS011;2494;51.872;9.688;2022-10-16T13:05:38;1.10;;;1.00;;
4957;SDS011;2494;51.872;9.688;2022-10-16T13:08:14;1.90;;;1.07;;
4957;SDS011;2494;51.872;9.688;2022-10-16T13:10:51;1.10;;;1.00;;
4957;SDS011;2494;51.872;9.688;2022-10-16T13:13:29;1.13;;;0.90;;
4957;SDS011;2494;51.872;9.688;2022-10-16T13:16:02;1.03;;;0.90;;
4957;SDS011;2494;51.872;9.688;2022-10-16T13:18:33;1.40;;;0.90;;
4957;SDS011;2494;51.872;9.688;2022-10-16T13:21:04;3.00;;;1.10;;
4957;SDS011;2494;51.872;9.688;2022-10-16T13:23:33;1.10;;;1.00;;
4957;SDS011;2494;51.872;9.688;2022-10-16T13:28:45;1.53;;;0.80;;
4957;SDS011;2494;51.872;9.688;2022-10-16T13:31:13;2.80;;;1.00;;
4957;SDS011;2494;51.872;9.688;2022-10-16T13:33:41;2.20;;;0.80;;
4957;SDS011;2494;51.872;9.688;2022-10-16T13:36:17;1.27;;;0.90;;
4957;SDS011;2494;51.872;9.688;2022-10-16T13:38:44;2.50;;;1.23;;
4957;SDS011;2494;51.872;9.688;2022-10-16T13:41:13;5.53;;;1.07;;
4957;SDS011;2494;51.872;9.688;2022-10-16T13:43:41;1.53;;;0.90;;
4957;SDS011;2494;51.872;9.688;2022-10-16T13:46:12;1.43;;;0.90;;
4957;SDS011;2494;51.872;9.688;2022-10-16T13:48:39;1.20;;;0.90;;
4957;SDS011;2494;51.872;9.688;2022-10-16T13:51:10;1.20;;;1.10;;
4957;SDS011;2494;51.872;9.688;2022-10-16T13:53:38;2.07;;;1.30;;
4957;SDS011;2494;51.872;9.688;2022-10-16T13:56:06;3.73;;;0.83;;
4957;SDS011;2494;51.872;9.688;2022-10-16T13:58:33;1.40;;;1.10;;
4957;SDS011;2494;51.872;9.688;2022-10-16T14:01:00;1.20;;;0.80;;
4957;SDS011;2494;51.872;9.688;2022-10-16T14:03:28;0.80;;;0.70;;
4957;SDS011;2494;51.872;9.688;2022-10-16T14:05:56;0.70;;;0.70;;
4957;SDS011;2494;51.872;9.688;2022-10-16T14:08:24;0.80;;;0.80;;
4957;SDS011;2494;51.872;9.688;2022-10-16T14:10:51;1.37;;;0.70;;
4957;SDS011;2494;51.872;9.688;2022-10-16T14:13:19;0.70;;;0.60;;
4957;SDS011;2494;51.872;9.688;2022-10-16T14:15:47;2.60;;;2.07;;
4957;SDS011;2494;51.872;9.688;2022-10-16T14:18:16;3.53;;;0.67;;
4957;SDS011;2494;51.872;9.688;2022-10-16T14:20:45;1.30;;;0.77;;
4957;SDS011;2494;51.872;9.688;2022-10-16T14:23:19;6.30;;;3.30;;
4957;SDS011;2494;51.872;9.688;2022-10-16T14:25:46;0.90;;;0.70;;
4957;SDS011;2494;51.872;9.688;2022-10-16T14:28:15;0.80;;;0.80;;
4957;SDS011;2494;51.872;9.688;2022-10-16T14:30:48;1.30;;;0.70;;
4957;SDS011;2494;51.872;9.688;2022-10-16T14:33:19;0.83;;;0.70;;
4957;SDS011;2494;51.872;9.688;2022-10-16T14:35:56;2.20;;;0.80;;
4957;SDS011;2494;51.872;9.688;2022-10-16T14:38:25;5.17;;;1.33;;
4957;SDS011;2494;51.872;9.688;2022-10-16T14:40:51;1.30;;;0.70;;
4957;SDS011;2494;51.872;9.688;2022-10-16T14:43:19;0.90;;;0.90;;
4957;SDS011;2494;51.872;9.688;2022-10-16T14:45:49;1.00;;;0.90;;
4957;SDS011;2494;51.872;9.688;2022-10-16T14:48:17;1.00;;;0.70;;
4957;SDS011;2494;51.872;9.688;2022-10-16T14:50:44;2.07;;;0.80;;
4957;SDS011;2494;51.872;9.688;2022-10-16T14:53:12;0.80;;;0.70;;
4957;SDS011;2494;51.872;9.688;2022-10-16T14:55:39;0.60;;;0.60;;
4957;SDS011;2494;51.872;9.688;2022-10-16T14:58:08;3.90;;;0.70;;
4957;SDS011;2494;51.872;9.688;2022-10-16T15:00:36;1.43;;;0.70;;
4957;SDS011;2494;51.872;9.688;2022-10-16T15:03:02;0.83;;;0.70;;
4957;SDS011;2494;51.872;9.688;2022-10-16T15:05:28;0.80;;;0.70;;
4957;SDS011;2494;51.872;9.688;2022-10-16T15:07:57;1.73;;;0.70;;
4957;SDS011;2494;51.872;9.688;2022-10-16T15:10:25;0.70;;;0.60;;
4957;SDS011;2494;51.872;9.688;2022-10-16T15:12:53;1.50;;;0.50;;
4957;SDS011;2494;51.872;9.688;2022-10-16T15:15:27;1.50;;;0.80;;
4957;SDS011;2494;51.872;9.688;2022-10-16T15:17:55;0.60;;;0.60;;
4957;SDS011;2494;51.872;9.688;2022-10-16T15:20:22;1.53;;;0.90;;
4957;SDS011;2494;51.872;9.688;2022-10-16T15:22:49;2.40;;;0.60;;
4957;SDS011;2494;51.872;9.688;2022-10-16T15:25:17;2.30;;;0.93;;
4957;SDS011;2494;51.872;9.688;2022-10-16T15:27:52;4.97;;;0.90;;
4957;SDS011;2494;51.872;9.688;2022-10-16T15:30:19;1.63;;;0.80;;